sensor_id;sensor_type;location;lat;lon;timestamp;temperature;humidity
21184;DHT22;18176;49.502;11.754;2023-03-01T00:02:04;-2.90;99.90
21184;DHT22;18176;49.502;11.754;2023-03-01T00:06:05;-2.90;99.90
21184;DHT22;18176;49.502;11.754;2023-03-01T00:10:07;-2.90;99.90
21184;DHT22;18176;49.502;11.754;2023-03-01T00:14:08;-2.90;99.90
21184;DHT22;18176;49.502;11.754;2023-03-01T00:18:12;-2.90;99.90
21184;DHT22;18176;49.502;11.754;2023-03-01T00:22:12;-3.00;99.90
21184;DHT22;18176;49.502;11.754;2023-03-01T00:26:13;-3.10;99.90
21184;DHT22;18176;49.502;11.754;2023-03-01T00:30:14;-3.30;99.90
21184;DHT22;18176;49.502;11.754;2023-03-01T00:34:18;-3.30;99.90
21184;DHT22;18176;49.502;11.754;2023-03-01T00:38:18;-3.30;99.90
21184;DHT22;18176;49.502;11.754;2023-03-01T00:42:19;-3.40;99.90
21184;DHT22;18176;49.502;11.754;2023-03-01T00:46:21;-3.40;99.90
21184;DHT22;18176;49.502;11.754;2023-03-01T00:50:26;-3.40;99.90
21184;DHT22;18176;49.502;11.754;2023-03-01T00:54:27;-3.60;99.90
21184;DHT22;18176;49.502;11.754;2023-03-01T00:58:28;-3.70;99.90
21184;DHT22;18176;49.502;11.754;2023-03-01T01:02:28;-3.80;99.90
21184;DHT22;18176;49.502;11.754;2023-03-01T01:06:34;-3.80;99.90
21184;DHT22;18176;49.502;11.754;2023-03-01T01:10:39;-3.80;99.90
21184;DHT22;18176;49.502;11.754;2023-03-01T01:14:39;-3.90;99.90
21184;DHT22;18176;49.502;11.754;2023-03-01T01:18:40;-3.90;99.90
21184;DHT22;18176;49.502;11.754;2023-03-01T01:22:43;-3.90;99.90
21184;DHT22;18176;49.502;11.754;2023-03-01T01:26:44;-3.90;99.90
21184;DHT22;18176;49.502;11.754;2023-03-01T01:30:45;-3.90;99.90
21184;DHT22;18176;49.502;11.754;2023-03-01T01:34:45;-4.00;99.90
21184;DHT22;18176;49.502;11.754;2023-03-01T01:38:49;-4.00;99.90
21184;DHT22;18176;49.502;11.754;2023-03-01T01:42:50;-4.10;99.90
21184;DHT22;18176;49.502;11.754;2023-03-01T01:46:53;-4.10;99.90
21184;DHT22;18176;49.502;11.754;2023-03-01T01:50:59;-4.20;99.90
21184;DHT22;18176;49.502;11.754;2023-03-01T01:55:05;-4.30;99.90
21184;DHT22;18176;49.502;11.754;2023-03-01T01:59:12;-4.30;99.90
21184;DHT22;18176;49.502;11.754;2023-03-01T02:03:18;-4.30;99.90
21184;DHT22;18176;49.502;11.754;2023-03-01T02:07:23;-4.30;99.90
21184;DHT22;18176;49.502;11.754;2023-03-01T02:11:30;-4.30;99.90
21184;DHT22;18176;49.502;11.754;2023-03-01T02:15:36;-4.30;99.90
21184;DHT22;18176;49.502;11.754;2023-03-01T02:19:50;-4.20;99.90
21184;DHT22;18176;49.502;11.754;2023-03-01T02:24:04;-4.30;99.90
21184;DHT22;18176;49.502;11.754;2023-03-01T02:28:25;-4.40;99.90
21184;DHT22;18176;49.502;11.754;2023-03-01T02:32:29;-4.40;99.90
21184;DHT22;18176;49.502;11.754;2023-03-01T02:36:34;-4.40;99.90
21184;DHT22;18176;49.502;11.754;2023-03-01T02:40:38;-4.40;99.90
21184;DHT22;18176;49.502;11.754;2023-03-01T02:44:44;-4.40;99.90
21184;DHT22;18176;49.502;11.754;2023-03-01T02:48:47;-4.40;99.90
21184;DHT22;18176;49.502;11.754;2023-03-01T02:52:55;-4.30;99.90
21184;DHT22;18176;49.502;11.754;2023-03-01T02:57:01;-4.20;99.90
21184;DHT22;18176;49.502;11.754;2023-03-01T03:01:05;-4.20;99.90
21184;DHT22;18176;49.502;11.754;2023-03-01T03:05:10;-4.30;99.90
21184;DHT22;18176;49.502;11.754;2023-03-01T03:09:14;-4.20;99.90
21184;DHT22;18176;49.502;11.754;2023-03-01T03:13:15;-4.20;99.90
21184;DHT22;18176;49.502;11.754;2023-03-01T03:17:19;-4.20;99.90
21184;DHT22;18176;49.502;11.754;2023-03-01T03:21:20;-4.00;99.90
21184;DHT22;18176;49.502;11.754;2023-03-01T03:25:21;-4.00;99.90
21184;DHT22;18176;49.502;11.754;2023-03-01T03:29:23;-4.00;99.90
21184;DHT22;18176;49.502;11.754;2023-03-01T03:33:26;-4.10;99.90
21184;DHT22;18176;49.502;11.754;2023-03-01T03:37:27;-4.20;99.90
21184;DHT22;18176;49.502;11.754;2023-03-01T03:41:45;-4.30;99.90
21184;DHT22;18176;49.502;11.754;2023-03-01T03:45:47;-4.20;99.90
21184;DHT22;18176;49.502;11.754;2023-03-01T03:49:51;-4.10;99.90
21184;DHT22;18176;49.502;11.754;2023-03-01T03:53:51;-4.10;99.90
21184;DHT22;18176;49.502;11.754;2023-03-01T03:57:52;-4.10;99.90
21184;DHT22;18176;49.502;11.754;2023-03-01T04:01:53;-3.90;99.90
21184;DHT22;18176;49.502;11.754;2023-03-01T04:06:00;-4.00;99.90
21184;DHT22;18176;49.502;11.754;2023-03-01T04:10:02;-4.00;99.90
21184;DHT22;18176;49.502;11.754;2023-03-01T04:14:03;-4.20;99.90
21184;DHT22;18176;49.502;11.754;2023-03-01T04:18:04;-4.30;99.90
21184;DHT22;18176;49.502;11.754;2023-03-01T04:22:08;-4.30;99.90
21184;DHT22;18176;49.502;11.754;2023-03-01T04:26:14;-4.30;99.90
21184;DHT22;18176;49.502;11.754;2023-03-01T04:30:15;-4.30;99.90
21184;DHT22;18176;49.502;11.754;2023-03-01T04:34:16;-4.30;99.90
21184;DHT22;18176;49.502;11.754;2023-03-01T04:38:19;-4.30;99.90
21184;DHT22;18176;49.502;11.754;2023-03-01T04:42:22;-4.20;99.90
21184;DHT22;18176;49.502;11.754;2023-03-01T04:46:24;-4.30;99.90
21184;DHT22;18176;49.502;11.754;2023-03-01T04:50:25;-4.40;99.90
21184;DHT22;18176;49.502;11.754;2023-03-01T04:54:28;-4.40;99.90
21184;DHT22;18176;49.502;11.754;2023-03-01T04:58:29;-4.50;99.90
21184;DHT22;18176;49.502;11.754;2023-03-01T05:02:29;-4.70;99.90
21184;DHT22;18176;49.502;11.754;2023-03-01T05:06:30;-4.80;99.90
21184;DHT22;18176;49.502;11.754;2023-03-01T05:10:35;-4.80;99.90
21184;DHT22;18176;49.502;11.754;2023-03-01T05:14:36;-4.90;99.90
21184;DHT22;18176;49.502;11.754;2023-03-01T05:18:37;-5.00;99.90
21184;DHT22;18176;49.502;11.754;2023-03-01T05:22:40;-5.10;99.90
21184;DHT22;18176;49.502;11.754;2023-03-01T05:26:43;-5.10;99.90
21184;DHT22;18176;49.502;11.754;2023-03-01T05:30:45;-5.00;99.90
21184;DHT22;18176;49.502;11.754;2023-03-01T05:34:48;-4.90;99.90
21184;DHT22;18176;49.502;11.754;2023-03-01T05:38:49;-4.90;99.90
21184;DHT22;18176;49.502;11.754;2023-03-01T05:42:54;-4.90;99.90
21184;DHT22;18176;49.502;11.754;2023-03-01T05:46:56;-4.80;99.90
21184;DHT22;18176;49.502;11.754;2023-03-01T05:50:59;-4.80;99.90
21184;DHT22;18176;49.502;11.754;2023-03-01T05:55:00;-4.80;99.90
21184;DHT22;18176;49.502;11.754;2023-03-01T05:59:04;-4.90;99.90
21184;DHT22;18176;49.502;11.754;2023-03-01T06:03:05;-5.10;99.90
21184;DHT22;18176;49.502;11.754;2023-03-01T06:07:06;-5.00;99.90
21184;DHT22;18176;49.502;11.754;2023-03-01T06:11:06;-5.00;99.90
21184;DHT22;18176;49.502;11.754;2023-03-01T06:15:11;-5.00;99.90
21184;DHT22;18176;49.502;11.754;2023-03-01T06:19:12;-4.90;99.90
21184;DHT22;18176;49.502;11.754;2023-03-01T06:23:13;-4.90;99.90
21184;DHT22;18176;49.502;11.754;2023-03-01T06:27:13;-4.70;99.90
21184;DHT22;18176;49.502;11.754;2023-03-01T06:31:17;-4.60;99.90
21184;DHT22;18176;49.502;11.754;2023-03-01T06:35:18;-4.50;99.90
21184;DHT22;18176;49.502;11.754;2023-03-01T06:39:19;-4.50;99.90
21184;DHT22;18176;49.502;11.754;2023-03-01T06:43:20;-4.40;99.90
21184;DHT22;18176;49.502;11.754;2023-03-01T06:47:23;-4.20;99.90
21184;DHT22;18176;49.502;11.754;2023-03-01T06:51:24;-4.10;99.90
21184;DHT22;18176;49.502;11.754;2023-03-01T06:55:26;-3.90;99.90
21184;DHT22;18176;49.502;11.754;2023-03-01T06:59:26;-3.80;99.90
21184;DHT22;18176;49.502;11.754;2023-03-01T07:03:30;-3.60;99.90
21184;DHT22;18176;49.502;11.754;2023-03-01T07:07:31;-3.40;99.90
21184;DHT22;18176;49.502;11.754;2023-03-01T07:11:32;-3.10;99.90
21184;DHT22;18176;49.502;11.754;2023-03-01T07:15:33;-2.60;99.90
21184;DHT22;18176;49.502;11.754;2023-03-01T07:19:36;-2.20;99.90
21184;DHT22;18176;49.502;11.754;2023-03-01T07:23:37;-1.90;99.90
21184;DHT22;18176;49.502;11.754;2023-03-01T07:27:37;-1.70;99.90
21184;DHT22;18176;49.502;11.754;2023-03-01T07:31:37;-1.30;99.90
21184;DHT22;18176;49.502;11.754;2023-03-01T07:35:41;-1.10;99.90
21184;DHT22;18176;49.502;11.754;2023-03-01T07:39:41;-0.80;99.90
21184;DHT22;18176;49.502;11.754;2023-03-01T07:43:42;-0.50;99.90
21184;DHT22;18176;49.502;11.754;2023-03-01T07:47:42;-0.40;99.90
21184;DHT22;18176;49.502;11.754;2023-03-01T07:51:46;-0.30;99.90
21184;DHT22;18176;49.502;11.754;2023-03-01T07:55:47;-0.20;99.90
21184;DHT22;18176;49.502;11.754;2023-03-01T07:59:48;-0.10;99.90
21184;DHT22;18176;49.502;11.754;2023-03-01T08:03:49;0.30;99.90
21184;DHT22;18176;49.502;11.754;2023-03-01T08:07:52;0.60;99.90
21184;DHT22;18176;49.502;11.754;2023-03-01T08:11:53;0.80;99.90
21184;DHT22;18176;49.502;11.754;2023-03-01T08:15:54;1.00;99.90
21184;DHT22;18176;49.502;11.754;2023-03-01T08:20:00;1.30;99.90
21184;DHT22;18176;49.502;11.754;2023-03-01T08:24:05;1.40;99.90
21184;DHT22;18176;49.502;11.754;2023-03-01T08:28:07;1.60;99.90
21184;DHT22;18176;49.502;11.754;2023-03-01T08:32:07;1.60;99.90
21184;DHT22;18176;49.502;11.754;2023-03-01T08:36:08;1.80;99.90
21184;DHT22;18176;49.502;11.754;2023-03-01T08:40:13;2.00;99.90
21184;DHT22;18176;49.502;11.754;2023-03-01T08:44:15;2.20;99.90
21184;DHT22;18176;49.502;11.754;2023-03-01T08:48:17;2.40;99.90
21184;DHT22;18176;49.502;11.754;2023-03-01T08:52:18;2.50;99.90
21184;DHT22;18176;49.502;11.754;2023-03-01T08:56:22;2.70;99.90
21184;DHT22;18176;49.502;11.754;2023-03-01T09:00:22;3.10;99.90
21184;DHT22;18176;49.502;11.754;2023-03-01T09:04:23;3.30;99.90
21184;DHT22;18176;49.502;11.754;2023-03-01T09:08:24;3.00;99.90
21184;DHT22;18176;49.502;11.754;2023-03-01T09:12:27;3.20;99.90
21184;DHT22;18176;49.502;11.754;2023-03-01T09:16:27;3.50;99.90
21184;DHT22;18176;49.502;11.754;2023-03-01T09:20:33;3.70;99.90
21184;DHT22;18176;49.502;11.754;2023-03-01T09:24:33;4.00;99.90
21184;DHT22;18176;49.502;11.754;2023-03-01T09:28:37;4.00;99.90
21184;DHT22;18176;49.502;11.754;2023-03-01T09:32:38;4.20;99.90
21184;DHT22;18176;49.502;11.754;2023-03-01T09:36:39;4.50;99.90
21184;DHT22;18176;49.502;11.754;2023-03-01T09:40:42;4.80;99.90
21184;DHT22;18176;49.502;11.754;2023-03-01T09:44:51;5.20;99.90
21184;DHT22;18176;49.502;11.754;2023-03-01T09:48:58;5.70;99.90
21184;DHT22;18176;49.502;11.754;2023-03-01T09:53:04;5.90;99.90
21184;DHT22;18176;49.502;11.754;2023-03-01T09:57:17;6.30;99.90
21184;DHT22;18176;49.502;11.754;2023-03-01T10:01:35;6.70;99.90
21184;DHT22;18176;49.502;11.754;2023-03-01T10:05:50;6.90;99.90
21184;DHT22;18176;49.502;11.754;2023-03-01T10:09:57;7.00;99.90
21184;DHT22;18176;49.502;11.754;2023-03-01T10:14:04;6.80;99.90
21184;DHT22;18176;49.502;11.754;2023-03-01T10:18:20;7.30;99.90
21184;DHT22;18176;49.502;11.754;2023-03-01T10:22:27;7.80;99.90
21184;DHT22;18176;49.502;11.754;2023-03-01T10:26:39;7.60;99.90
21184;DHT22;18176;49.502;11.754;2023-03-01T10:30:47;8.10;99.10
21184;DHT22;18176;49.502;11.754;2023-03-01T10:34:52;8.30;98.90
21184;DHT22;18176;49.502;11.754;2023-03-01T10:38:56;8.60;97.90
21184;DHT22;18176;49.502;11.754;2023-03-01T10:42:58;9.00;96.90
21184;DHT22;18176;49.502;11.754;2023-03-01T10:47:02;8.50;96.50
21184;DHT22;18176;49.502;11.754;2023-03-01T10:51:17;8.70;96.50
21184;DHT22;18176;49.502;11.754;2023-03-01T10:55:26;9.40;95.30
21184;DHT22;18176;49.502;11.754;2023-03-01T10:59:34;9.20;94.50
21184;DHT22;18176;49.502;11.754;2023-03-01T11:03:38;9.40;94.10
21184;DHT22;18176;49.502;11.754;2023-03-01T11:07:50;9.60;94.30
21184;DHT22;18176;49.502;11.754;2023-03-01T11:11:54;10.00;94.00
21184;DHT22;18176;49.502;11.754;2023-03-01T11:16:01;9.90;94.30
21184;DHT22;18176;49.502;11.754;2023-03-01T11:20:16;10.30;92.80
21184;DHT22;18176;49.502;11.754;2023-03-01T11:24:33;10.70;92.90
21184;DHT22;18176;49.502;11.754;2023-03-01T11:28:40;11.20;91.80
21184;DHT22;18176;49.502;11.754;2023-03-01T11:32:49;11.50;91.00
21184;DHT22;18176;49.502;11.754;2023-03-01T11:36:59;11.00;91.00
21184;DHT22;18176;49.502;11.754;2023-03-01T11:41:14;10.50;92.90
21184;DHT22;18176;49.502;11.754;2023-03-01T11:45:22;11.40;92.30
21184;DHT22;18176;49.502;11.754;2023-03-01T11:49:44;12.10;90.50
21184;DHT22;18176;49.502;11.754;2023-03-01T11:54:05;12.10;90.30
21184;DHT22;18176;49.502;11.754;2023-03-01T11:58:27;11.70;90.10
21184;DHT22;18176;49.502;11.754;2023-03-01T12:03:05;11.60;90.40
21184;DHT22;18176;49.502;11.754;2023-03-01T12:07:27;10.90;91.70
21184;DHT22;18176;49.502;11.754;2023-03-01T12:11:50;11.40;91.80
21184;DHT22;18176;49.502;11.754;2023-03-01T12:16:29;12.10;90.60
21184;DHT22;18176;49.502;11.754;2023-03-01T12:20:49;11.90;90.50
21184;DHT22;18176;49.502;11.754;2023-03-01T12:25:20;11.60;91.00
21184;DHT22;18176;49.502;11.754;2023-03-01T12:29:27;11.60;90.80
21184;DHT22;18176;49.502;11.754;2023-03-01T12:33:44;11.40;91.40
21184;DHT22;18176;49.502;11.754;2023-03-01T12:37:56;11.80;91.20
21184;DHT22;18176;49.502;11.754;2023-03-01T12:42:10;11.30;91.60
21184;DHT22;18176;49.502;11.754;2023-03-01T12:46:25;12.30;90.90
21184;DHT22;18176;49.502;11.754;2023-03-01T12:50:41;12.30;90.00
21184;DHT22;18176;49.502;11.754;2023-03-01T12:54:45;11.90;90.30
21184;DHT22;18176;49.502;11.754;2023-03-01T12:58:58;11.80;91.30
21184;DHT22;18176;49.502;11.754;2023-03-01T13:03:14;11.90;91.30
21184;DHT22;18176;49.502;11.754;2023-03-01T13:07:30;12.90;90.30
21184;DHT22;18176;49.502;11.754;2023-03-01T13:11:36;13.40;86.20
21184;DHT22;18176;49.502;11.754;2023-03-01T13:15:41;13.00;88.10
21184;DHT22;18176;49.502;11.754;2023-03-01T13:19:56;13.80;87.20
21184;DHT22;18176;49.502;11.754;2023-03-01T13:24:01;13.90;85.10
21184;DHT22;18176;49.502;11.754;2023-03-01T13:32:46;13.10;85.20
21184;DHT22;18176;49.502;11.754;2023-03-01T13:36:48;12.60;87.10
21184;DHT22;18176;49.502;11.754;2023-03-01T13:41:01;12.50;89.30
21184;DHT22;18176;49.502;11.754;2023-03-01T13:45:04;12.70;87.70
21184;DHT22;18176;49.502;11.754;2023-03-01T13:49:18;12.50;87.90
21184;DHT22;18176;49.502;11.754;2023-03-01T13:53:26;12.20;88.70
21184;DHT22;18176;49.502;11.754;2023-03-01T13:57:36;12.40;89.50
21184;DHT22;18176;49.502;11.754;2023-03-01T14:01:39;12.30;89.80
21184;DHT22;18176;49.502;11.754;2023-03-01T14:05:41;12.50;89.00
21184;DHT22;18176;49.502;11.754;2023-03-01T14:09:44;13.10;89.20
21184;DHT22;18176;49.502;11.754;2023-03-01T14:13:59;13.50;85.30
21184;DHT22;18176;49.502;11.754;2023-03-01T14:18:20;13.30;86.00
21184;DHT22;18176;49.502;11.754;2023-03-01T14:22:29;12.80;86.90
21184;DHT22;18176;49.502;11.754;2023-03-01T14:26:35;12.80;86.90
21184;DHT22;18176;49.502;11.754;2023-03-01T14:30:44;12.20;89.00
21184;DHT22;18176;49.502;11.754;2023-03-01T14:34:47;12.10;90.00
21184;DHT22;18176;49.502;11.754;2023-03-01T14:38:48;12.20;89.50
21184;DHT22;18176;49.502;11.754;2023-03-01T14:42:49;12.30;89.80
21184;DHT22;18176;49.502;11.754;2023-03-01T14:46:57;11.90;90.20
21184;DHT22;18176;49.502;11.754;2023-03-01T14:50:59;11.70;90.60
21184;DHT22;18176;49.502;11.754;2023-03-01T14:55:00;11.60;91.10
21184;DHT22;18176;49.502;11.754;2023-03-01T14:59:07;10.90;91.10
21184;DHT22;18176;49.502;11.754;2023-03-01T15:03:17;10.70;91.70
21184;DHT22;18176;49.502;11.754;2023-03-01T15:07:27;10.90;91.70
21184;DHT22;18176;49.502;11.754;2023-03-01T15:11:32;11.40;91.00
21184;DHT22;18176;49.502;11.754;2023-03-01T15:15:38;10.80;91.60
21184;DHT22;18176;49.502;11.754;2023-03-01T15:19:48;10.90;91.50
21184;DHT22;18176;49.502;11.754;2023-03-01T15:23:51;10.60;91.80
21184;DHT22;18176;49.502;11.754;2023-03-01T15:27:56;10.30;92.50
21184;DHT22;18176;49.502;11.754;2023-03-01T15:32:00;10.10;92.70
21184;DHT22;18176;49.502;11.754;2023-03-01T15:36:39;9.80;93.40
21184;DHT22;18176;49.502;11.754;2023-03-01T15:40:49;9.60;93.60
21184;DHT22;18176;49.502;11.754;2023-03-01T15:44:50;9.80;93.80
21184;DHT22;18176;49.502;11.754;2023-03-01T15:49:33;9.70;93.90
21184;DHT22;18176;49.502;11.754;2023-03-01T15:53:59;10.00;93.30
21184;DHT22;18176;49.502;11.754;2023-03-01T15:58:04;9.70;93.70
21184;DHT22;18176;49.502;11.754;2023-03-01T16:02:09;9.40;94.40
21184;DHT22;18176;49.502;11.754;2023-03-01T16:06:11;8.90;94.70
21184;DHT22;18176;49.502;11.754;2023-03-01T16:10:15;8.90;95.10
21184;DHT22;18176;49.502;11.754;2023-03-01T16:14:16;8.70;95.60
21184;DHT22;18176;49.502;11.754;2023-03-01T16:18:19;8.20;96.30
21184;DHT22;18176;49.502;11.754;2023-03-01T16:22:20;8.20;96.70
21184;DHT22;18176;49.502;11.754;2023-03-01T16:26:28;7.90;97.30
21184;DHT22;18176;49.502;11.754;2023-03-01T16:30:29;7.60;98.10
21184;DHT22;18176;49.502;11.754;2023-03-01T16:34:33;7.20;98.80
21184;DHT22;18176;49.502;11.754;2023-03-01T16:38:33;7.00;99.50
21184;DHT22;18176;49.502;11.754;2023-03-01T16:42:37;6.70;99.90
21184;DHT22;18176;49.502;11.754;2023-03-01T16:46:37;6.50;99.90
21184;DHT22;18176;49.502;11.754;2023-03-01T16:50:37;6.20;99.90
21184;DHT22;18176;49.502;11.754;2023-03-01T16:54:39;5.90;99.90
21184;DHT22;18176;49.502;11.754;2023-03-01T16:58:42;5.60;99.90
21184;DHT22;18176;49.502;11.754;2023-03-01T17:02:43;5.20;99.90
21184;DHT22;18176;49.502;11.754;2023-03-01T17:06:45;5.00;99.90
21184;DHT22;18176;49.502;11.754;2023-03-01T17:10:46;4.80;99.90
21184;DHT22;18176;49.502;11.754;2023-03-01T17:14:49;4.60;99.90
21184;DHT22;18176;49.502;11.754;2023-03-01T17:18:50;4.50;99.90
21184;DHT22;18176;49.502;11.754;2023-03-01T17:22:51;4.30;99.90
21184;DHT22;18176;49.502;11.754;2023-03-01T17:26:54;4.20;99.90
21184;DHT22;18176;49.502;11.754;2023-03-01T17:30:58;4.10;99.90
21184;DHT22;18176;49.502;11.754;2023-03-01T17:35:00;4.00;99.90
21184;DHT22;18176;49.502;11.754;2023-03-01T17:39:03;3.90;99.90
21184;DHT22;18176;49.502;11.754;2023-03-01T17:43:03;3.80;99.90
21184;DHT22;18176;49.502;11.754;2023-03-01T17:47:09;3.70;99.90
21184;DHT22;18176;49.502;11.754;2023-03-01T17:51:14;3.70;99.90
21184;DHT22;18176;49.502;11.754;2023-03-01T17:55:15;3.60;99.90
21184;DHT22;18176;49.502;11.754;2023-03-01T17:59:16;3.50;99.90
21184;DHT22;18176;49.502;11.754;2023-03-01T18:03:20;3.40;99.90
21184;DHT22;18176;49.502;11.754;2023-03-01T18:07:20;3.30;99.90
21184;DHT22;18176;49.502;11.754;2023-03-01T18:11:23;3.10;99.90
21184;DHT22;18176;49.502;11.754;2023-03-01T18:15:24;3.00;99.90
21184;DHT22;18176;49.502;11.754;2023-03-01T18:19:28;2.90;99.90
21184;DHT22;18176;49.502;11.754;2023-03-01T18:23:30;2.70;99.90
21184;DHT22;18176;49.502;11.754;2023-03-01T18:27:36;2.60;99.90
21184;DHT22;18176;49.502;11.754;2023-03-01T18:31:38;2.60;99.90
21184;DHT22;18176;49.502;11.754;2023-03-01T18:35:43;2.60;99.90
21184;DHT22;18176;49.502;11.754;2023-03-01T18:39:44;2.40;99.90
21184;DHT22;18176;49.502;11.754;2023-03-01T18:43:45;2.20;99.90
21184;DHT22;18176;49.502;11.754;2023-03-01T18:47:47;2.00;99.90
21184;DHT22;18176;49.502;11.754;2023-03-01T18:51:57;2.00;99.90
21184;DHT22;18176;49.502;11.754;2023-03-01T18:55:59;2.00;99.90
21184;DHT22;18176;49.502;11.754;2023-03-01T19:00:04;2.10;99.90
21184;DHT22;18176;49.502;11.754;2023-03-01T19:04:06;2.00;99.90
21184;DHT22;18176;49.502;11.754;2023-03-01T19:08:10;1.90;99.90
21184;DHT22;18176;49.502;11.754;2023-03-01T19:12:12;2.00;99.90
21184;DHT22;18176;49.502;11.754;2023-03-01T19:16:17;2.10;99.90
21184;DHT22;18176;49.502;11.754;2023-03-01T19:20:20;2.20;99.90
21184;DHT22;18176;49.502;11.754;2023-03-01T19:24:24;2.20;99.90
21184;DHT22;18176;49.502;11.754;2023-03-01T19:28:30;2.10;99.90
21184;DHT22;18176;49.502;11.754;2023-03-01T19:32:35;2.00;99.90
21184;DHT22;18176;49.502;11.754;2023-03-01T19:36:38;1.80;99.90
21184;DHT22;18176;49.502;11.754;2023-03-01T19:40:43;1.50;99.90
21184;DHT22;18176;49.502;11.754;2023-03-01T19:44:48;1.30;99.90
21184;DHT22;18176;49.502;11.754;2023-03-01T19:48:53;1.10;99.90
21184;DHT22;18176;49.502;11.754;2023-03-01T19:52:57;1.10;99.90
21184;DHT22;18176;49.502;11.754;2023-03-01T19:57:04;1.10;99.90
21184;DHT22;18176;49.502;11.754;2023-03-01T20:01:13;1.10;99.90
21184;DHT22;18176;49.502;11.754;2023-03-01T20:05:20;1.20;99.90
21184;DHT22;18176;49.502;11.754;2023-03-01T20:09:21;1.20;99.90
21184;DHT22;18176;49.502;11.754;2023-03-01T20:13:26;1.30;99.90
21184;DHT22;18176;49.502;11.754;2023-03-01T20:17:30;1.40;99.90
21184;DHT22;18176;49.502;11.754;2023-03-01T20:21:34;1.40;99.90
21184;DHT22;18176;49.502;11.754;2023-03-01T20:25:38;1.40;99.90
21184;DHT22;18176;49.502;11.754;2023-03-01T20:29:43;1.40;99.90
21184;DHT22;18176;49.502;11.754;2023-03-01T20:33:49;1.40;99.90
21184;DHT22;18176;49.502;11.754;2023-03-01T20:37:50;1.40;99.90
21184;DHT22;18176;49.502;11.754;2023-03-01T20:41:53;1.50;99.90
21184;DHT22;18176;49.502;11.754;2023-03-01T20:45:58;1.50;99.90
21184;DHT22;18176;49.502;11.754;2023-03-01T20:50:03;1.40;99.90
21184;DHT22;18176;49.502;11.754;2023-03-01T20:54:05;1.40;99.90
21184;DHT22;18176;49.502;11.754;2023-03-01T20:58:10;1.30;99.90
21184;DHT22;18176;49.502;11.754;2023-03-01T21:02:13;1.20;99.90
21184;DHT22;18176;49.502;11.754;2023-03-01T21:06:14;1.10;99.90
21184;DHT22;18176;49.502;11.754;2023-03-01T21:10:16;1.10;99.90
21184;DHT22;18176;49.502;11.754;2023-03-01T21:14:20;1.10;99.90
21184;DHT22;18176;49.502;11.754;2023-03-01T21:18:25;1.00;99.90
21184;DHT22;18176;49.502;11.754;2023-03-01T21:22:26;0.90;99.90
21184;DHT22;18176;49.502;11.754;2023-03-01T21:26:29;0.80;99.90
21184;DHT22;18176;49.502;11.754;2023-03-01T21:30:35;0.60;99.90
21184;DHT22;18176;49.502;11.754;2023-03-01T21:34:39;0.60;99.90
21184;DHT22;18176;49.502;11.754;2023-03-01T21:38:42;0.40;99.90
21184;DHT22;18176;49.502;11.754;2023-03-01T21:42:45;0.30;99.90
21184;DHT22;18176;49.502;11.754;2023-03-01T21:46:47;0.20;99.90
21184;DHT22;18176;49.502;11.754;2023-03-01T21:50:57;0.10;99.90
21184;DHT22;18176;49.502;11.754;2023-03-01T21:55:00;0.10;99.90
21184;DHT22;18176;49.502;11.754;2023-03-01T21:59:03;0.10;99.90
21184;DHT22;18176;49.502;11.754;2023-03-01T22:03:05;0.10;99.90
21184;DHT22;18176;49.502;11.754;2023-03-01T22:07:11;0.20;99.90
21184;DHT22;18176;49.502;11.754;2023-03-01T22:11:15;0.30;99.90
21184;DHT22;18176;49.502;11.754;2023-03-01T22:15:17;0.40;99.90
21184;DHT22;18176;49.502;11.754;2023-03-01T22:19:18;0.50;99.90
21184;DHT22;18176;49.502;11.754;2023-03-01T22:23:27;0.50;99.90
21184;DHT22;18176;49.502;11.754;2023-03-01T22:27:29;0.50;99.90
21184;DHT22;18176;49.502;11.754;2023-03-01T22:31:30;0.50;99.90
21184;DHT22;18176;49.502;11.754;2023-03-01T22:35:30;0.40;99.90
21184;DHT22;18176;49.502;11.754;2023-03-01T22:39:34;0.30;99.90
21184;DHT22;18176;49.502;11.754;2023-03-01T22:43:34;0.10;99.90
21184;DHT22;18176;49.502;11.754;2023-03-01T22:47:35;0.10;99.90
21184;DHT22;18176;49.502;11.754;2023-03-01T22:51:38;0.00;99.90
21184;DHT22;18176;49.502;11.754;2023-03-01T22:55:43;-0.10;99.90
21184;DHT22;18176;49.502;11.754;2023-03-01T22:59:43;-0.20;99.90
21184;DHT22;18176;49.502;11.754;2023-03-01T23:03:46;-0.20;99.90
21184;DHT22;18176;49.502;11.754;2023-03-01T23:07:49;-0.20;99.90
21184;DHT22;18176;49.502;11.754;2023-03-01T23:11:53;-0.10;99.90
21184;DHT22;18176;49.502;11.754;2023-03-01T23:15:55;-0.10;99.90
21184;DHT22;18176;49.502;11.754;2023-03-01T23:19:58;-0.10;99.90
21184;DHT22;18176;49.502;11.754;2023-03-01T23:24:03;-0.20;99.90
21184;DHT22;18176;49.502;11.754;2023-03-01T23:28:08;-0.20;99.90
21184;DHT22;18176;49.502;11.754;2023-03-01T23:32:08;-0.20;99.90
21184;DHT22;18176;49.502;11.754;2023-03-01T23:36:16;-0.20;99.90
21184;DHT22;18176;49.502;11.754;2023-03-01T23:40:23;-0.10;99.90
21184;DHT22;18176;49.502;11.754;2023-03-01T23:44:26;-0.10;99.90
21184;DHT22;18176;49.502;11.754;2023-03-01T23:48:27;-0.10;99.90
21184;DHT22;18176;49.502;11.754;2023-03-01T23:52:28;0.00;99.90
21184;DHT22;18176;49.502;11.754;2023-03-01T23:56:37;0.20;99.90
